METAR Data
IDs: Format: Raw Decoded Include TAF

Data at: 1141 UTC 15 Jul 2020

KLKR 151135Z AUTO 00000KT 5SM BR CLR 24/23 A3009 RMK AO2
KLKR 151115Z AUTO 00000KT 6SM BR FEW060 SCT110 24/23 A3008 RMK AO2
KLKR 151055Z AUTO 03004KT 7SM 24/23 A3008 RMK AO2
KLKR 151035Z AUTO 00000KT 6SM BR BKN120 23/22 A3007 RMK AO2
KLKR 151015Z AUTO 00000KT 6SM BR FEW055 SCT085 BKN120 23/22 A3007 RMK AO2
KLKR 150955Z AUTO 00000KT 7SM SCT055 BKN085 OVC120 23/22 A3006 RMK AO2
KLKR 150935Z AUTO 00000KT 7SM FEW055 BKN085 OVC120 23/22 A3006 RMK AO2
KLKR 150915Z AUTO 00000KT 6SM BR SCT055 BKN090 OVC120 23/22 A3005 RMK AO2
KLKR 150855Z AUTO 00000KT 7SM OVC090 23/22 A3005 RMK AO2
KLKR 150835Z AUTO 00000KT 9SM BKN085 23/22 A3004 RMK AO2
KLKR 150815Z AUTO 00000KT 10SM SCT085 24/22 A3004 RMK AO2
KLKR 150755Z AUTO 00000KT 10SM CLR 24/22 A3004 RMK AO2
KLKR 150735Z AUTO 00000KT 10SM CLR 24/22 A3004 RMK AO2
KLKR 150715Z AUTO 06004KT 9SM CLR 24/23 A3004 RMK AO2
KLKR 150655Z AUTO 00000KT 9SM CLR 24/23 A3004 RMK AO2
KLKR 150635Z AUTO 06003KT 9SM CLR 24/23 A3004 RMK AO2
KLKR 150615Z AUTO 00000KT 9SM CLR 24/23 A3004 RMK AO2
KLKR 150555Z AUTO 00000KT 10SM FEW120 25/23 A3004 RMK AO2
KLKR 150535Z AUTO 00000KT 10SM CLR 25/23 A3005 RMK AO2
KLKR 150515Z AUTO 00000KT 10SM SCT120 25/23 A3005 RMK AO2
KLKR 150455Z AUTO 00000KT 9SM BKN120 24/23 A3006 RMK AO2
KLKR 150435Z AUTO 00000KT 9SM CLR 24/23 A3006 RMK AO2
KLKR 150415Z AUTO 00000KT 9SM FEW080 FEW120 24/23 A3007 RMK AO2
KLKR 150355Z AUTO 00000KT 9SM CLR 25/23 A3006 RMK AO2
KLKR 150335Z AUTO 00000KT 10SM CLR 25/23 A3006 RMK AO2
KLKR 150315Z AUTO 00000KT 10SM CLR 26/23 A3006 RMK AO2
KLKR 150255Z AUTO 00000KT 10SM CLR 26/23 A3005 RMK AO2
KLKR 150235Z AUTO 00000KT 10SM CLR 27/23 A3005 RMK AO2
KLKR 150215Z AUTO 00000KT 10SM CLR 26/23 A3004 RMK AO2
KLKR 150155Z AUTO 00000KT 10SM FEW080 26/23 A3003 RMK AO2
KLKR 150135Z AUTO 00000KT 10SM CLR 26/24 A3003 RMK AO2
KLKR 150115Z AUTO 00000KT 10SM CLR 27/23 A3003 RMK AO2
KLKR 150055Z AUTO 00000KT 9SM CLR 27/24 A3002 RMK AO2
KLKR 150035Z AUTO 00000KT 9SM CLR 28/24 A3002 RMK AO2
KLKR 150015Z AUTO 00000KT 9SM CLR 29/24 A3001 RMK AO2
KLKR 142355Z AUTO 00000KT 10SM CLR 31/24 A3001 RMK AO2
KLKR 142335Z AUTO 00000KT 9SM CLR 31/23 A3000 RMK AO2
KLKR 142315Z AUTO 00000KT 10SM CLR 32/22 A3000 RMK AO2
KLKR 142255Z AUTO 00000KT 10SM CLR 32/22 A3000 RMK AO2
KLKR 142235Z AUTO 17004KT 9SM CLR 32/21 A3000 RMK AO2
KLKR 142215Z AUTO 14003KT 10SM CLR 33/22 A2999 RMK AO2
KLKR 142155Z AUTO 00000KT CLR 33/22 A2999 RMK AO2 PWINO
KLKR 142135Z AUTO 18003KT 9SM CLR 33/22 A2999 RMK AO2
KLKR 142115Z AUTO 19005KT 10SM CLR 33/22 A2999 RMK AO2
KLKR 142055Z AUTO 19005KT 9SM CLR 33/21 A2999 RMK AO2
KLKR 142035Z AUTO 00000KT 9SM CLR 33/20 A2999 RMK AO2
KLKR 142015Z AUTO 22008KT 9SM FEW070 32/22 A2999 RMK AO2
KLKR 141955Z AUTO VRB04KT 9SM FEW070 34/22 A2999 RMK AO2
KLKR 141935Z AUTO VRB05KT 9SM CLR 34/22 A2999 RMK AO2
KLKR 141915Z AUTO 20005KT 9SM FEW048 FEW060 33/22 A2999 RMK AO2
KLKR 141855Z AUTO 00000KT 9SM BKN048 BKN060 33/22 A2999 RMK AO2
KLKR 141835Z AUTO 00000KT 9SM FEW100 33/21 A3000 RMK AO2
KLKR 141815Z AUTO 00000KT 10SM FEW044 SCT100 33/22 A3000 RMK AO2
KLKR 141755Z AUTO VRB04KT 9SM FEW100 33/22 A3000 RMK AO2
KLKR 141735Z AUTO 00000KT 9SM FEW055 FEW100 33/22 A3001 RMK AO2
KLKR 141715Z AUTO 00000KT 9SM FEW042 SCT050 BKN055 32/22 A3001 RMK AO2
KLKR 141655Z AUTO 00000KT 9SM SCT040 SCT047 32/22 A3002 RMK AO2
KLKR 141635Z AUTO 00000KT 10SM CLR 32/22 A3002 RMK AO2
KLKR 141615Z AUTO 00000KT 10SM CLR 32/23 A3002 RMK AO2
KLKR 141555Z AUTO 08004KT 9SM SCT060 SCT070 31/23 A3002 RMK AO2
KLKR 141535Z AUTO 06005KT 10SM BKN060 BKN070 30/23 A3002 RMK AO2
KLKR 141515Z AUTO 00000KT 10SM FEW060 31/23 A3002 RMK AO2
KLKR 141455Z AUTO 00000KT 9SM CLR 31/23 A3002 RMK AO2
KLKR 141435Z AUTO 06003KT 10SM CLR 31/24 A3002 RMK AO2
KLKR 141415Z AUTO 00000KT 9SM CLR 29/23 A3002 RMK AO2
KLKR 141355Z AUTO 00000KT 9SM CLR 29/23 A3002 RMK AO2
KLKR 141335Z AUTO 00000KT 10SM CLR 28/23 A3002 RMK AO2
KLKR 141315Z AUTO 00000KT 10SM CLR 27/23 A3001 RMK AO2
KLKR 141255Z AUTO 07004KT 10SM CLR 27/23 A3001 RMK AO2
KLKR 141235Z AUTO 00000KT 10SM CLR 26/22 A3000 RMK AO2
KLKR 141215Z AUTO VRB03KT 10SM CLR 25/22 A2999 RMK AO2
KLKR 141155Z AUTO 04003KT 10SM CLR 25/23 A2998 RMK AO2
KLKR 141135Z AUTO 00000KT 7SM 23/22 A2997 RMK AO2
KLKR 141115Z AUTO 00000KT 5SM BR CLR 22/21 A2997 RMK AO2
KLKR 141055Z AUTO 00000KT 4SM BR CLR 22/21 A2997 RMK AO2
KLKR 141035Z AUTO 00000KT 3SM BR CLR 21/21 A2996 RMK AO2
KLKR 140955Z AUTO 00000KT 3SM BR BKN110 21/21 A2995 RMK AO2
KLKR 140935Z AUTO 00000KT 6SM BR SCT110 22/21 A2994 RMK AO2
KLKR 140915Z AUTO 00000KT 9SM FEW070 BKN110 22/21 A2994 RMK AO2
KLKR 140855Z AUTO 00000KT 10SM FEW075 BKN110 22/21 A2994 RMK AO2
KLKR 140835Z AUTO 00000KT 7SM BKN110 22/21 A2994 RMK AO2
KLKR 140815Z AUTO 00000KT 7SM FEW060 SCT110 22/21 A2993 RMK AO2
KLKR 140715Z AUTO 00000KT 9SM CLR 22/22 A2993 RMK AO2
KLKR 140655Z AUTO 00000KT 10SM CLR 22/22 A2993 RMK AO2
KLKR 140635Z AUTO 00000KT 10SM CLR 23/22 A2993 RMK AO2
KLKR 140615Z AUTO 00000KT 10SM CLR 23/22 A2993 RMK AO2
KLKR 140535Z AUTO 00000KT 10SM CLR 23/22 A2993 RMK AO2
KLKR 140515Z AUTO 00000KT 10SM CLR 23/22 A2993 RMK AO2
KLKR 140455Z AUTO 00000KT 10SM CLR 24/22 A2994 RMK AO2
KLKR 140435Z AUTO 00000KT 10SM CLR 24/22 A2993 RMK AO2
KLKR 140415Z AUTO 00000KT 10SM -DZ CLR 24/22 A2994 RMK AO2
KLKR 140355Z AUTO 00000KT 10SM CLR 24/22 A2994 RMK AO2
KLKR 140335Z AUTO 00000KT 10SM CLR 24/22 A2994 RMK AO2
KLKR 140315Z AUTO 00000KT 10SM CLR 24/23 A2993 RMK AO2
KLKR 140255Z AUTO 00000KT 10SM CLR 25/23 A2992 RMK AO2
KLKR 140235Z AUTO 00000KT 10SM FEW050 25/23 A2992 RMK AO2
KLKR 140215Z AUTO 00000KT 10SM BKN050 25/23 A2992 RMK AO2
KLKR 140155Z AUTO 00000KT 10SM BKN055 25/23 A2991 RMK AO2
KLKR 140135Z AUTO 00000KT 10SM FEW055 26/23 A2990 RMK AO2
KLKR 140115Z AUTO 00000KT 10SM CLR 25/23 A2990 RMK AO2
KLKR 140055Z AUTO 00000KT 10SM CLR 26/23 A2989 RMK AO2
KLKR 140035Z AUTO 00000KT 10SM CLR 27/23 A2989 RMK AO2
KLKR 140015Z AUTO 00000KT 10SM CLR 28/22 A2989 RMK AO2
KLKR 132355Z AUTO 00000KT 10SM CLR 28/22 A2989 RMK AO2